sensor_id;sensor_type;location;lat;lon;timestamp;pressure;altitude;pressure_sealevel;temperature;humidity
23281;BME280;11809;56.390;-3.266;2024-02-14T00:01:01;100206.44;;;12.92;56.78
23281;BME280;11809;56.390;-3.266;2024-02-14T00:03:33;100211.88;;;12.89;56.88
23281;BME280;11809;56.390;-3.266;2024-02-14T00:06:04;100209.50;;;12.84;57.29
23281;BME280;11809;56.390;-3.266;2024-02-14T00:08:35;100219.38;;;12.81;57.22
23281;BME280;11809;56.390;-3.266;2024-02-14T00:11:05;100216.81;;;12.79;57.28
23281;BME280;11809;56.390;-3.266;2024-02-14T00:13:35;100227.28;;;12.81;57.41
23281;BME280;11809;56.390;-3.266;2024-02-14T00:16:08;100219.53;;;12.77;57.42
23281;BME280;11809;56.390;-3.266;2024-02-14T00:18:38;100208.31;;;12.74;57.33
23281;BME280;11809;56.390;-3.266;2024-02-14T00:21:08;100219.91;;;12.71;57.43
23281;BME280;11809;56.390;-3.266;2024-02-14T00:23:38;100224.47;;;12.68;57.64
23281;BME280;11809;56.390;-3.266;2024-02-14T00:26:08;100216.72;;;12.65;57.58
23281;BME280;11809;56.390;-3.266;2024-02-14T00:28:38;100221.16;;;12.64;57.88
23281;BME280;11809;56.390;-3.266;2024-02-14T00:31:11;100217.00;;;12.60;57.68
23281;BME280;11809;56.390;-3.266;2024-02-14T00:33:41;100208.41;;;12.57;57.93
23281;BME280;11809;56.390;-3.266;2024-02-14T00:36:12;100211.13;;;12.55;57.85
23281;BME280;11809;56.390;-3.266;2024-02-14T00:38:42;100213.00;;;12.53;57.82
23281;BME280;11809;56.390;-3.266;2024-02-14T00:41:12;100217.50;;;12.51;58.00
23281;BME280;11809;56.390;-3.266;2024-02-14T00:43:42;100217.59;;;12.50;57.81
23281;BME280;11809;56.390;-3.266;2024-02-14T00:46:18;100217.75;;;12.47;58.04
23281;BME280;11809;56.390;-3.266;2024-02-14T00:48:47;100223.88;;;12.47;58.21
23281;BME280;11809;56.390;-3.266;2024-02-14T00:51:18;100217.84;;;12.45;57.92
23281;BME280;11809;56.390;-3.266;2024-02-14T00:53:48;100193.88;;;12.34;57.93
23281;BME280;11809;56.390;-3.266;2024-02-14T00:56:18;100211.94;;;12.40;58.13
23281;BME280;11809;56.390;-3.266;2024-02-14T00:58:50;100210.16;;;12.41;58.29
23281;BME280;11809;56.390;-3.266;2024-02-14T01:01:23;100216.47;;;12.38;58.29
23281;BME280;11809;56.390;-3.266;2024-02-14T01:03:52;100215.59;;;12.38;58.18
23281;BME280;11809;56.390;-3.266;2024-02-14T01:06:24;100210.00;;;12.28;58.41
23281;BME280;11809;56.390;-3.266;2024-02-14T01:08:55;100202.25;;;12.25;58.42
23281;BME280;11809;56.390;-3.266;2024-02-14T01:11:25;100220.28;;;12.33;58.49
23281;BME280;11809;56.390;-3.266;2024-02-14T01:13:55;100233.44;;;12.33;58.47
23281;BME280;11809;56.390;-3.266;2024-02-14T01:16:27;100226.56;;;12.30;58.38
23281;BME280;11809;56.390;-3.266;2024-02-14T01:18:58;100230.16;;;12.29;58.54
23281;BME280;11809;56.390;-3.266;2024-02-14T01:21:28;100233.63;;;12.30;58.61
23281;BME280;11809;56.390;-3.266;2024-02-14T01:23:58;100238.06;;;12.29;58.57
23281;BME280;11809;56.390;-3.266;2024-02-14T01:26:28;100235.41;;;12.29;58.38
23281;BME280;11809;56.390;-3.266;2024-02-14T01:28:59;100232.00;;;12.27;58.42
23281;BME280;11809;56.390;-3.266;2024-02-14T01:31:32;100232.94;;;12.26;58.55
23281;BME280;11809;56.390;-3.266;2024-02-14T01:34:03;100233.81;;;12.27;58.69
23281;BME280;11809;56.390;-3.266;2024-02-14T01:36:33;100238.38;;;12.23;58.66
23281;BME280;11809;56.390;-3.266;2024-02-14T01:39:05;100235.75;;;12.23;58.67
23281;BME280;11809;56.390;-3.266;2024-02-14T01:41:37;100236.50;;;12.25;58.65
23281;BME280;11809;56.390;-3.266;2024-02-14T01:44:08;100245.34;;;12.24;58.74
23281;BME280;11809;56.390;-3.266;2024-02-14T01:46:41;100234.38;;;12.16;58.73
23281;BME280;11809;56.390;-3.266;2024-02-14T01:49:11;100234.97;;;12.21;58.80
23281;BME280;11809;56.390;-3.266;2024-02-14T01:51:42;100236.75;;;12.21;58.59
23281;BME280;11809;56.390;-3.266;2024-02-14T01:54:13;100234.97;;;12.21;58.81
23281;BME280;11809;56.390;-3.266;2024-02-14T01:56:44;100231.50;;;12.21;58.84
23281;BME280;11809;56.390;-3.266;2024-02-14T01:59:14;100235.91;;;12.20;58.59
23281;BME280;11809;56.390;-3.266;2024-02-14T02:01:48;100243.03;;;12.18;58.88
23281;BME280;11809;56.390;-3.266;2024-02-14T02:04:18;100225.06;;;12.09;58.90
23281;BME280;11809;56.390;-3.266;2024-02-14T02:06:48;100234.28;;;12.18;58.93
23281;BME280;11809;56.390;-3.266;2024-02-14T02:09:19;100237.00;;;12.16;58.78
23281;BME280;11809;56.390;-3.266;2024-02-14T02:11:49;100237.84;;;12.16;58.96
23281;BME280;11809;56.390;-3.266;2024-02-14T02:14:20;100241.56;;;12.12;58.99
23281;BME280;11809;56.390;-3.266;2024-02-14T02:16:53;100240.56;;;12.15;58.77
23281;BME280;11809;56.390;-3.266;2024-02-14T02:19:24;100246.69;;;12.15;58.74
23281;BME280;11809;56.390;-3.266;2024-02-14T02:21:54;100242.44;;;12.13;58.77
23281;BME280;11809;56.390;-3.266;2024-02-14T02:24:26;100245.06;;;12.13;58.83
23281;BME280;11809;56.390;-3.266;2024-02-14T02:26:56;100251.25;;;12.12;58.94
23281;BME280;11809;56.390;-3.266;2024-02-14T02:29:26;100232.53;;;12.01;58.90
23281;BME280;11809;56.390;-3.266;2024-02-14T02:31:58;100245.22;;;12.10;59.04
23281;BME280;11809;56.390;-3.266;2024-02-14T02:34:28;100256.63;;;12.10;59.05
23281;BME280;11809;56.390;-3.266;2024-02-14T02:36:58;100255.00;;;12.08;59.18
23281;BME280;11809;56.390;-3.266;2024-02-14T02:39:30;100254.00;;;12.10;59.16
23281;BME280;11809;56.390;-3.266;2024-02-14T02:42:00;100247.91;;;12.08;58.91
23281;BME280;11809;56.390;-3.266;2024-02-14T02:44:31;100251.41;;;12.09;58.96
23281;BME280;11809;56.390;-3.266;2024-02-14T02:47:00;100233.47;;;12.00;59.31
23281;BME280;11809;56.390;-3.266;2024-02-14T02:49:30;100248.88;;;12.07;59.01
23281;BME280;11809;56.390;-3.266;2024-02-14T02:52:00;100238.34;;;12.07;59.00
23281;BME280;11809;56.390;-3.266;2024-02-14T02:54:33;100243.66;;;12.06;59.05
23281;BME280;11809;56.390;-3.266;2024-02-14T02:57:03;100239.34;;;12.05;59.22
23281;BME280;11809;56.390;-3.266;2024-02-14T02:59:33;100239.34;;;12.05;59.31
23281;BME280;11809;56.390;-3.266;2024-02-14T03:02:03;100239.34;;;12.05;59.22
23281;BME280;11809;56.390;-3.266;2024-02-14T03:04:35;100241.13;;;12.04;59.10
23281;BME280;11809;56.390;-3.266;2024-02-14T03:07:18;100239.34;;;12.05;59.17
23281;BME280;11809;56.390;-3.266;2024-02-14T03:09:53;100239.41;;;12.03;59.36
23281;BME280;11809;56.390;-3.266;2024-02-14T03:12:23;100240.28;;;12.04;59.33
23281;BME280;11809;56.390;-3.266;2024-02-14T03:14:55;100239.50;;;12.02;59.30
23281;BME280;11809;56.390;-3.266;2024-02-14T03:17:25;100232.47;;;12.02;59.39
23281;BME280;11809;56.390;-3.266;2024-02-14T03:19:55;100231.59;;;12.02;59.32
23281;BME280;11809;56.390;-3.266;2024-02-14T03:22:27;100227.25;;;12.01;59.42
23281;BME280;11809;56.390;-3.266;2024-02-14T03:25:00;100228.97;;;12.02;59.40
23281;BME280;11809;56.390;-3.266;2024-02-14T03:27:30;100228.97;;;12.02;59.25
23281;BME280;11809;56.390;-3.266;2024-02-14T03:30:01;100231.66;;;12.00;59.21
23281;BME280;11809;56.390;-3.266;2024-02-14T03:32:31;100226.41;;;12.00;59.23
23281;BME280;11809;56.390;-3.266;2024-02-14T03:35:02;100227.25;;;12.01;59.32
23281;BME280;11809;56.390;-3.266;2024-02-14T03:37:32;100231.66;;;12.00;59.35
23281;BME280;11809;56.390;-3.266;2024-02-14T03:40:05;100232.53;;;12.01;59.45
23281;BME280;11809;56.390;-3.266;2024-02-14T03:42:35;100227.34;;;11.99;59.26
23281;BME280;11809;56.390;-3.266;2024-02-14T03:45:07;100225.59;;;12.00;59.42
23281;BME280;11809;56.390;-3.266;2024-02-14T03:47:37;100225.75;;;11.97;59.40
23281;BME280;11809;56.390;-3.266;2024-02-14T03:50:09;100222.16;;;11.98;59.53
23281;BME280;11809;56.390;-3.266;2024-02-14T03:52:39;100217.84;;;11.97;59.60
23281;BME280;11809;56.390;-3.266;2024-02-14T03:55:12;100224.88;;;11.96;59.35
23281;BME280;11809;56.390;-3.266;2024-02-14T03:57:44;100224.03;;;11.96;59.38
23281;BME280;11809;56.390;-3.266;2024-02-14T04:00:15;100224.03;;;11.96;59.35
23281;BME280;11809;56.390;-3.266;2024-02-14T04:02:45;100219.69;;;11.95;59.57
23281;BME280;11809;56.390;-3.266;2024-02-14T04:05:16;100218.84;;;11.94;59.38
23281;BME280;11809;56.390;-3.266;2024-02-14T04:07:45;100215.34;;;11.94;59.51
23281;BME280;11809;56.390;-3.266;2024-02-14T04:10:21;100211.00;;;11.93;59.41
23281;BME280;11809;56.390;-3.266;2024-02-14T04:12:51;100206.09;;;11.87;59.64
23281;BME280;11809;56.390;-3.266;2024-02-14T04:15:21;100213.59;;;11.94;59.39
23281;BME280;11809;56.390;-3.266;2024-02-14T04:17:51;100214.50;;;11.93;59.42
23281;BME280;11809;56.390;-3.266;2024-02-14T04:20:21;100225.78;;;11.95;59.71
23281;BME280;11809;56.390;-3.266;2024-02-14T04:22:51;100227.56;;;11.95;59.44
23281;BME280;11809;56.390;-3.266;2024-02-14T04:25:24;100226.03;;;11.91;59.64
23281;BME280;11809;56.390;-3.266;2024-02-14T04:27:54;100231.16;;;11.94;59.37
23281;BME280;11809;56.390;-3.266;2024-02-14T04:30:24;100232.94;;;11.93;59.72
23281;BME280;11809;56.390;-3.266;2024-02-14T04:32:54;100222.50;;;11.92;59.51
23281;BME280;11809;56.390;-3.266;2024-02-14T04:35:24;100220.63;;;11.94;59.65
23281;BME280;11809;56.390;-3.266;2024-02-14T04:37:54;100225.03;;;11.93;59.72
23281;BME280;11809;56.390;-3.266;2024-02-14T04:40:26;100223.25;;;11.94;59.72
23281;BME280;11809;56.390;-3.266;2024-02-14T04:42:56;100206.25;;;11.84;59.82
23281;BME280;11809;56.390;-3.266;2024-02-14T04:45:26;100221.53;;;11.93;59.59
23281;BME280;11809;56.390;-3.266;2024-02-14T04:47:56;100227.75;;;11.92;59.52
23281;BME280;11809;56.390;-3.266;2024-02-14T04:50:26;100238.28;;;11.92;59.68
23281;BME280;11809;56.390;-3.266;2024-02-14T04:52:57;100246.09;;;11.93;59.63
23281;BME280;11809;56.390;-3.266;2024-02-14T04:55:30;100245.34;;;11.91;59.56
23281;BME280;11809;56.390;-3.266;2024-02-14T04:58:00;100241.84;;;11.91;59.62
23281;BME280;11809;56.390;-3.266;2024-02-14T05:00:32;100228.22;;;11.83;59.72
23281;BME280;11809;56.390;-3.266;2024-02-14T05:03:02;100239.22;;;11.91;59.62
23281;BME280;11809;56.390;-3.266;2024-02-14T05:05:32;100244.47;;;11.91;59.75
23281;BME280;11809;56.390;-3.266;2024-02-14T05:08:02;100248.81;;;11.92;59.54
23281;BME280;11809;56.390;-3.266;2024-02-14T05:10:35;100248.03;;;11.90;59.73
23281;BME280;11809;56.390;-3.266;2024-02-14T05:13:05;100250.66;;;11.90;59.71
23281;BME280;11809;56.390;-3.266;2024-02-14T05:15:35;100255.94;;;11.90;59.86
23281;BME280;11809;56.390;-3.266;2024-02-14T05:18:05;100260.28;;;11.91;59.77
23281;BME280;11809;56.390;-3.266;2024-02-14T05:20:37;100263.00;;;11.89;59.71
23281;BME280;11809;56.390;-3.266;2024-02-14T05:23:07;100271.72;;;11.90;59.90
23281;BME280;11809;56.390;-3.266;2024-02-14T05:25:40;100263.81;;;11.90;59.78
23281;BME280;11809;56.390;-3.266;2024-02-14T05:28:10;100272.44;;;11.93;59.56
23281;BME280;11809;56.390;-3.266;2024-02-14T05:30:41;100267.16;;;11.93;58.87
23281;BME280;11809;56.390;-3.266;2024-02-14T05:33:11;100270.25;;;12.01;59.10
23281;BME280;11809;56.390;-3.266;2024-02-14T05:35:42;100269.19;;;12.05;59.17
23281;BME280;11809;56.390;-3.266;2024-02-14T05:38:11;100257.34;;;11.97;58.74
23281;BME280;11809;56.390;-3.266;2024-02-14T05:40:44;100256.88;;;11.89;58.68
23281;BME280;11809;56.390;-3.266;2024-02-14T05:43:14;100260.38;;;11.89;59.15
23281;BME280;11809;56.390;-3.266;2024-02-14T05:45:47;100256.88;;;11.89;59.40
23281;BME280;11809;56.390;-3.266;2024-02-14T05:48:17;100250.84;;;11.87;59.88
23281;BME280;11809;56.390;-3.266;2024-02-14T05:50:47;100238.75;;;11.83;59.73
23281;BME280;11809;56.390;-3.266;2024-02-14T05:53:17;100260.28;;;11.91;59.66
23281;BME280;11809;56.390;-3.266;2024-02-14T05:55:50;100261.91;;;11.93;60.12
23281;BME280;11809;56.390;-3.266;2024-02-14T05:58:19;100254.84;;;11.94;60.51
23281;BME280;11809;56.390;-3.266;2024-02-14T06:00:50;100259.16;;;11.95;60.83
23281;BME280;11809;56.390;-3.266;2024-02-14T06:03:20;100252.94;;;11.97;60.66
23281;BME280;11809;56.390;-3.266;2024-02-14T06:05:50;100250.81;;;12.04;60.25
23281;BME280;11809;56.390;-3.266;2024-02-14T06:08:21;100258.56;;;12.07;60.17
23281;BME280;11809;56.390;-3.266;2024-02-14T06:10:56;100260.28;;;12.08;60.29
23281;BME280;11809;56.390;-3.266;2024-02-14T06:13:26;100259.31;;;12.09;60.80
23281;BME280;11809;56.390;-3.266;2024-02-14T06:15:56;100265.03;;;12.17;60.53
23281;BME280;11809;56.390;-3.266;2024-02-14T06:18:26;100261.31;;;12.21;60.39
23281;BME280;11809;56.390;-3.266;2024-02-14T06:20:56;100254.19;;;12.23;60.99
23281;BME280;11809;56.390;-3.266;2024-02-14T06:23:26;100254.78;;;12.28;60.65
23281;BME280;11809;56.390;-3.266;2024-02-14T06:25:59;100273.56;;;12.38;60.76
23281;BME280;11809;56.390;-3.266;2024-02-14T06:28:30;100274.53;;;12.37;60.98
23281;BME280;11809;56.390;-3.266;2024-02-14T06:31:00;100274.44;;;12.38;61.13
23281;BME280;11809;56.390;-3.266;2024-02-14T06:33:30;100277.56;;;12.29;60.55
23281;BME280;11809;56.390;-3.266;2024-02-14T06:36:01;100275.69;;;12.31;61.16
23281;BME280;11809;56.390;-3.266;2024-02-14T06:38:31;100277.63;;;12.28;60.43
23281;BME280;11809;56.390;-3.266;2024-02-14T06:41:04;100279.50;;;12.26;60.17
23281;BME280;11809;56.390;-3.266;2024-02-14T06:43:34;100263.16;;;12.19;60.24
23281;BME280;11809;56.390;-3.266;2024-02-14T06:46:05;100271.69;;;12.24;60.41
23281;BME280;11809;56.390;-3.266;2024-02-14T06:48:35;100273.38;;;12.25;60.25
23281;BME280;11809;56.390;-3.266;2024-02-14T06:51:06;100268.06;;;12.27;60.55
23281;BME280;11809;56.390;-3.266;2024-02-14T06:53:36;100272.63;;;12.23;60.58
23281;BME280;11809;56.390;-3.266;2024-02-14T06:56:09;100271.16;;;12.18;60.12
23281;BME280;11809;56.390;-3.266;2024-02-14T06:58:39;100276.69;;;12.13;59.98
23281;BME280;11809;56.390;-3.266;2024-02-14T07:01:09;100271.47;;;12.11;60.27
23281;BME280;11809;56.390;-3.266;2024-02-14T07:03:41;100276.84;;;12.10;60.26
23281;BME280;11809;56.390;-3.266;2024-02-14T07:06:13;100281.34;;;12.08;59.85
23281;BME280;11809;56.390;-3.266;2024-02-14T07:08:44;100283.97;;;12.08;60.00
23281;BME280;11809;56.390;-3.266;2024-02-14T07:11:17;100286.66;;;12.06;59.95
23281;BME280;11809;56.390;-3.266;2024-02-14T07:13:47;100286.75;;;12.05;59.87
23281;BME280;11809;56.390;-3.266;2024-02-14T07:16:17;100292.03;;;12.05;60.03
23281;BME280;11809;56.390;-3.266;2024-02-14T07:18:47;100295.44;;;12.07;60.16
23281;BME280;11809;56.390;-3.266;2024-02-14T07:21:17;100295.03;;;12.14;60.20
23281;BME280;11809;56.390;-3.266;2024-02-14T07:23:47;100298.34;;;12.18;60.12
23281;BME280;11809;56.390;-3.266;2024-02-14T07:26:20;100294.09;;;12.15;60.32
23281;BME280;11809;56.390;-3.266;2024-02-14T07:28:50;100297.91;;;12.10;59.77
23281;BME280;11809;56.390;-3.266;2024-02-14T07:31:21;100301.84;;;12.01;58.95
23281;BME280;11809;56.390;-3.266;2024-02-14T07:33:52;100298.69;;;11.78;57.76
23281;BME280;11809;56.390;-3.266;2024-02-14T07:36:22;100307.13;;;11.84;58.48
23281;BME280;11809;56.390;-3.266;2024-02-14T07:38:52;100296.22;;;11.92;58.71
23281;BME280;11809;56.390;-3.266;2024-02-14T07:41:25;100311.84;;;11.95;59.12
23281;BME280;11809;56.390;-3.266;2024-02-14T07:43:55;100301.31;;;11.95;59.73
23281;BME280;11809;56.390;-3.266;2024-02-14T07:46:25;100304.88;;;11.94;59.65
23281;BME280;11809;56.390;-3.266;2024-02-14T07:48:56;100308.44;;;11.93;59.73
23281;BME280;11809;56.390;-3.266;2024-02-14T07:51:26;100318.22;;;11.91;60.16
23281;BME280;11809;56.390;-3.266;2024-02-14T07:54:00;100317.44;;;11.89;60.27
23281;BME280;11809;56.390;-3.266;2024-02-14T07:56:33;100321.84;;;11.88;60.23
23281;BME280;11809;56.390;-3.266;2024-02-14T07:59:03;100315.88;;;11.85;60.04
23281;BME280;11809;56.390;-3.266;2024-02-14T08:01:33;100307.97;;;11.85;60.21
23281;BME280;11809;56.390;-3.266;2024-02-14T08:04:04;100308.94;;;11.84;60.09
23281;BME280;11809;56.390;-3.266;2024-02-14T08:06:34;100310.75;;;11.82;60.57
23281;BME280;11809;56.390;-3.266;2024-02-14T08:09:04;100314.34;;;11.81;60.35
23281;BME280;11809;56.390;-3.266;2024-02-14T08:11:39;100320.53;;;11.80;60.21
23281;BME280;11809;56.390;-3.266;2024-02-14T08:14:11;100315.34;;;11.78;60.58
23281;BME280;11809;56.390;-3.266;2024-02-14T08:16:41;100312.78;;;11.77;60.60
23281;BME280;11809;56.390;-3.266;2024-02-14T08:19:11;100316.34;;;11.76;60.64
23281;BME280;11809;56.390;-3.266;2024-02-14T08:21:43;100319.91;;;11.75;60.35
23281;BME280;11809;56.390;-3.266;2024-02-14T08:24:12;100313.88;;;11.73;60.37
23281;BME280;11809;56.390;-3.266;2024-02-14T08:26:47;100313.88;;;11.73;60.68
23281;BME280;11809;56.390;-3.266;2024-02-14T08:29:17;100313.09;;;11.71;60.62
23281;BME280;11809;56.390;-3.266;2024-02-14T08:31:47;100313.09;;;11.71;60.61
23281;BME280;11809;56.390;-3.266;2024-02-14T08:34:17;100308.75;;;11.70;60.48
23281;BME280;11809;56.390;-3.266;2024-02-14T08:36:48;100296.97;;;11.60;60.71
23281;BME280;11809;56.390;-3.266;2024-02-14T08:39:18;100314.94;;;11.69;60.66
23281;BME280;11809;56.390;-3.266;2024-02-14T08:41:51;100317.63;;;11.67;60.56
23281;BME280;11809;56.390;-3.266;2024-02-14T08:44:21;100299.75;;;11.56;60.43
23281;BME280;11809;56.390;-3.266;2024-02-14T08:46:53;100315.06;;;11.66;60.68
23281;BME280;11809;56.390;-3.266;2024-02-14T08:49:23;100308.41;;;11.58;60.50
23281;BME280;11809;56.390;-3.266;2024-02-14T08:51:53;100315.22;;;11.63;60.78
23281;BME280;11809;56.390;-3.266;2024-02-14T08:54:24;100316.06;;;11.63;60.84
23281;BME280;11809;56.390;-3.266;2024-02-14T09:00:09;100319.63;;;11.62;60.49
23281;BME280;11809;56.390;-3.266;2024-02-14T09:02:42;100301.66;;;11.53;60.66
23281;BME280;11809;56.390;-3.266;2024-02-14T09:05:13;100318.78;;;11.62;60.79
23281;BME280;11809;56.390;-3.266;2024-02-14T09:07:44;100326.78;;;11.60;60.89
23281;BME280;11809;56.390;-3.266;2024-02-14T09:10:14;100312.28;;;11.51;60.93
23281;BME280;11809;56.390;-3.266;2024-02-14T09:12:45;100318.94;;;11.58;60.87
23281;BME280;11809;56.390;-3.266;2024-02-14T09:15:18;100324.19;;;11.58;60.79
23281;BME280;11809;56.390;-3.266;2024-02-14T09:17:48;100317.69;;;11.48;60.99
23281;BME280;11809;56.390;-3.266;2024-02-14T09:20:19;100326.91;;;11.57;60.94
23281;BME280;11809;56.390;-3.266;2024-02-14T09:22:49;100322.56;;;11.56;60.93
23281;BME280;11809;56.390;-3.266;2024-02-14T09:25:20;100323.41;;;11.56;60.67
23281;BME280;11809;56.390;-3.266;2024-02-14T09:27:52;100322.66;;;11.54;60.66
23281;BME280;11809;56.390;-3.266;2024-02-14T09:30:25;100327.06;;;11.54;60.87
23281;BME280;11809;56.390;-3.266;2024-02-14T09:33:04;100322.72;;;11.53;60.93
23281;BME280;11809;56.390;-3.266;2024-02-14T09:35:36;100319.22;;;11.52;60.87
23281;BME280;11809;56.390;-3.266;2024-02-14T09:38:11;100318.41;;;11.52;60.89
23281;BME280;11809;56.390;-3.266;2024-02-14T09:40:42;100319.22;;;11.52;60.88
23281;BME280;11809;56.390;-3.266;2024-02-14T09:43:14;100323.66;;;11.52;60.88
23281;BME280;11809;56.390;-3.266;2024-02-14T09:45:50;100329.84;;;11.51;60.91
23281;BME280;11809;56.390;-3.266;2024-02-14T09:48:21;100326.28;;;11.52;61.04
23281;BME280;11809;56.390;-3.266;2024-02-14T09:50:52;100328.06;;;11.51;61.00
23281;BME280;11809;56.390;-3.266;2024-02-14T09:53:22;100324.47;;;11.52;60.82
23281;BME280;11809;56.390;-3.266;2024-02-14T09:55:52;100318.41;;;11.52;60.80
23281;BME280;11809;56.390;-3.266;2024-02-14T09:58:24;100326.19;;;11.53;60.92
23281;BME280;11809;56.390;-3.266;2024-02-14T10:00:58;100317.53;;;11.51;60.80
23281;BME280;11809;56.390;-3.266;2024-02-14T10:03:28;100327.22;;;11.51;61.02
23281;BME280;11809;56.390;-3.266;2024-02-14T10:05:58;100317.53;;;11.51;61.06
23281;BME280;11809;56.390;-3.266;2024-02-14T10:08:32;100319.31;;;11.51;61.04
23281;BME280;11809;56.390;-3.266;2024-02-14T10:11:13;100321.84;;;11.52;60.81
23281;BME280;11809;56.390;-3.266;2024-02-14T10:13:44;100321.09;;;11.50;60.83
23281;BME280;11809;56.390;-3.266;2024-02-14T10:16:19;100320.16;;;11.51;61.13
23281;BME280;11809;56.390;-3.266;2024-02-14T10:18:51;100323.72;;;11.50;61.09
23281;BME280;11809;56.390;-3.266;2024-02-14T10:21:24;100321.09;;;11.50;61.03
23281;BME280;11809;56.390;-3.266;2024-02-14T10:23:59;100322.81;;;11.51;61.09
23281;BME280;11809;56.390;-3.266;2024-02-14T10:26:29;100315.81;;;11.50;61.07
23281;BME280;11809;56.390;-3.266;2024-02-14T10:29:00;100299.56;;;11.42;60.86
23281;BME280;11809;56.390;-3.266;2024-02-14T10:31:32;100314.97;;;11.50;60.89
23281;BME280;11809;56.390;-3.266;2024-02-14T10:34:04;100307.44;;;11.42;61.20
23281;BME280;11809;56.390;-3.266;2024-02-14T10:36:36;100312.34;;;11.50;60.90
23281;BME280;11809;56.390;-3.266;2024-02-14T10:39:07;100311.41;;;11.51;61.18
23281;BME280;11809;56.390;-3.266;2024-02-14T10:41:37;100317.53;;;11.51;61.04
23281;BME280;11809;56.390;-3.266;2024-02-14T10:44:09;100325.50;;;11.50;61.10
23281;BME280;11809;56.390;-3.266;2024-02-14T10:46:42;100319.47;;;11.48;60.95
23281;BME280;11809;56.390;-3.266;2024-02-14T10:49:14;100315.97;;;11.47;61.25
23281;BME280;11809;56.390;-3.266;2024-02-14T10:51:46;100322.09;;;11.48;61.26
23281;BME280;11809;56.390;-3.266;2024-02-14T10:54:17;100309.47;;;11.37;60.96
23281;BME280;11809;56.390;-3.266;2024-02-14T10:56:49;100321.22;;;11.47;61.10
23281;BME280;11809;56.390;-3.266;2024-02-14T10:59:19;100321.22;;;11.47;61.23
23281;BME280;11809;56.390;-3.266;2024-02-14T11:01:53;100317.75;;;11.47;61.19
23281;BME280;11809;56.390;-3.266;2024-02-14T11:04:24;100321.22;;;11.47;61.18
23281;BME280;11809;56.390;-3.266;2024-02-14T11:06:58;100318.59;;;11.47;61.02
23281;BME280;11809;56.390;-3.266;2024-02-14T11:09:33;100326.50;;;11.47;60.86
23281;BME280;11809;56.390;-3.266;2024-02-14T11:12:07;100324.81;;;11.46;61.01
23281;BME280;11809;56.390;-3.266;2024-02-14T11:14:38;100323.09;;;11.45;61.18
23281;BME280;11809;56.390;-3.266;2024-02-14T11:17:15;100306.06;;;11.35;61.23
23281;BME280;11809;56.390;-3.266;2024-02-14T11:19:50;100320.47;;;11.45;61.05
23281;BME280;11809;56.390;-3.266;2024-02-14T11:22:21;100322.22;;;11.45;61.21
23281;BME280;11809;56.390;-3.266;2024-02-14T11:24:53;100322.31;;;11.43;61.02
23281;BME280;11809;56.390;-3.266;2024-02-14T11:27:23;100324.88;;;11.45;61.15
23281;BME280;11809;56.390;-3.266;2024-02-14T11:30:00;100315.28;;;11.44;61.03
23281;BME280;11809;56.390;-3.266;2024-02-14T11:32:34;100316.19;;;11.43;61.07
23281;BME280;11809;56.390;-3.266;2024-02-14T11:35:06;100312.66;;;11.44;61.00
23281;BME280;11809;56.390;-3.266;2024-02-14T11:37:37;100303.03;;;11.43;61.23
23281;BME280;11809;56.390;-3.266;2024-02-14T11:40:08;100310.03;;;11.44;61.18
23281;BME280;11809;56.390;-3.266;2024-02-14T11:42:38;100310.94;;;11.43;61.20
23281;BME280;11809;56.390;-3.266;2024-02-14T11:45:08;100309.06;;;11.45;61.00
23281;BME280;11809;56.390;-3.266;2024-02-14T11:47:42;100310.03;;;11.44;60.98
23281;BME280;11809;56.390;-3.266;2024-02-14T11:50:13;100310.03;;;11.44;61.01
23281;BME280;11809;56.390;-3.266;2024-02-14T11:52:43;100307.44;;;11.42;61.01
23281;BME280;11809;56.390;-3.266;2024-02-14T11:55:16;100300.50;;;11.41;61.03
23281;BME280;11809;56.390;-3.266;2024-02-14T11:57:48;100302.19;;;11.42;61.04
23281;BME280;11809;56.390;-3.266;2024-02-14T12:00:19;100301.31;;;11.42;61.04
23281;BME280;11809;56.390;-3.266;2024-02-14T12:02:52;100303.97;;;11.42;60.98
23281;BME280;11809;56.390;-3.266;2024-02-14T12:05:23;100288.69;;;11.31;61.11
23281;BME280;11809;56.390;-3.266;2024-02-14T12:07:54;100310.16;;;11.41;61.24
23281;BME280;11809;56.390;-3.266;2024-02-14T12:10:25;100312.81;;;11.41;61.33
23281;BME280;11809;56.390;-3.266;2024-02-14T12:12:55;100314.56;;;11.40;61.30
23281;BME280;11809;56.390;-3.266;2024-02-14T12:15:26;100306.78;;;11.39;61.26
23281;BME280;11809;56.390;-3.266;2024-02-14T12:17:59;100306.78;;;11.39;61.23
23281;BME280;11809;56.390;-3.266;2024-02-14T12:20:29;100307.69;;;11.38;61.27
23281;BME280;11809;56.390;-3.266;2024-02-14T12:23:01;100309.47;;;11.37;61.21
23281;BME280;11809;56.390;-3.266;2024-02-14T12:25:32;100309.47;;;11.37;61.05
23281;BME280;11809;56.390;-3.266;2024-02-14T12:28:04;100313.00;;;11.36;61.16
23281;BME280;11809;56.390;-3.266;2024-02-14T12:30:42;100308.44;;;11.40;61.07
23281;BME280;11809;56.390;-3.266;2024-02-14T12:33:18;100305.06;;;11.38;61.21
23281;BME280;11809;56.390;-3.266;2024-02-14T12:35:49;100304.19;;;11.37;61.40
23281;BME280;11809;56.390;-3.266;2024-02-14T12:38:20;100294.19;;;11.27;61.38
23281;BME280;11809;56.390;-3.266;2024-02-14T12:40:50;100307.75;;;11.36;61.22
23281;BME280;11809;56.390;-3.266;2024-02-14T12:43:21;100297.22;;;11.36;61.41
23281;BME280;11809;56.390;-3.266;2024-02-14T12:45:51;100292.81;;;11.37;61.02
23281;BME280;11809;56.390;-3.266;2024-02-14T12:48:24;100288.41;;;11.37;61.35
23281;BME280;11809;56.390;-3.266;2024-02-14T12:50:57;100285.88;;;11.36;61.38
23281;BME280;11809;56.390;-3.266;2024-02-14T12:53:27;100287.56;;;11.37;61.17
23281;BME280;11809;56.390;-3.266;2024-02-14T12:55:57;100286.78;;;11.35;61.29
23281;BME280;11809;56.390;-3.266;2024-02-14T12:58:27;100279.75;;;11.35;61.48
23281;BME280;11809;56.390;-3.266;2024-02-14T13:00:57;100276.34;;;11.33;61.39
23281;BME280;11809;56.390;-3.266;2024-02-14T13:03:31;100273.72;;;11.33;61.46